createdAt,value
2019-02-16T00:04:22.279Z,40.3
2019-02-16T00:14:21.488Z,40.5
2019-02-16T00:24:20.697Z,40.3
2019-02-16T00:34:19.905Z,40.6
2019-02-16T00:44:19.113Z,40.6
2019-02-16T00:54:18.320Z,40.6
2019-02-16T01:04:17.528Z,40.6
2019-02-16T01:14:16.735Z,40.6
2019-02-16T01:24:15.943Z,40.8
2019-02-16T01:34:15.152Z,40.6
2019-02-16T01:44:14.357Z,40.6
2019-02-16T01:54:13.564Z,40.6
2019-02-16T02:04:12.773Z,40.7
2019-02-16T02:14:11.983Z,40.7
2019-02-16T02:24:11.186Z,40.6
2019-02-16T02:34:10.396Z,40.5
2019-02-16T02:44:09.604Z,40.5
2019-02-16T02:54:08.808Z,40.5
2019-02-16T03:04:08.014Z,40.4
2019-02-16T03:14:07.220Z,40.4
2019-02-16T03:24:06.477Z,40.5
2019-02-16T03:40:51.263Z,40.6
2019-02-16T03:50:50.469Z,40.4
2019-02-16T04:00:49.679Z,40.4
2019-02-16T04:10:48.884Z,40.5
2019-02-16T04:20:48.086Z,40.6
2019-02-16T04:30:47.306Z,40.6
2019-02-16T04:40:46.602Z,40.4
2019-02-16T04:50:45.895Z,40.3
2019-02-16T05:00:45.187Z,40.2
2019-02-16T05:10:44.506Z,39.9
2019-02-16T05:20:43.767Z,40.1
2019-02-16T05:30:43.016Z,39.9
2019-02-16T05:40:42.222Z,40
2019-02-16T05:50:41.427Z,40
2019-02-16T06:00:40.633Z,40.1
2019-02-16T06:10:39.839Z,40.4
2019-02-16T06:20:39.045Z,40.6
2019-02-16T06:42:10.351Z,30.7
2019-02-16T06:52:09.555Z,26.4
2019-02-16T07:02:08.761Z,27.6
2019-02-16T07:12:07.970Z,35.7
2019-02-16T07:22:07.175Z,31.5
2019-02-16T07:32:06.453Z,29.3
2019-02-16T07:42:05.692Z,29.5
2019-02-16T07:52:04.984Z,28
2019-02-16T08:02:04.276Z,27.1
2019-02-16T08:12:03.570Z,24.8
2019-02-16T08:22:02.865Z,25.6
2019-02-16T08:32:02.125Z,24.3
2019-02-16T08:42:01.337Z,22.1
2019-02-16T08:52:00.583Z,23.1
2019-02-16T09:02:54.392Z,24.9
2019-02-16T09:12:53.605Z,25.1
2019-02-16T09:22:52.817Z,25.6
2019-02-16T09:32:52.034Z,25.8
2019-02-16T09:42:51.249Z,27
2019-02-16T09:52:50.528Z,30
2019-02-16T10:02:49.777Z,28.3
2019-02-16T10:12:49.074Z,27.9
2019-02-16T10:22:48.364Z,26.4
2019-02-16T10:32:47.659Z,29.1
2019-02-16T10:42:46.954Z,25
2019-02-16T10:52:46.210Z,29.7
2019-02-16T11:02:45.426Z,37.1
2019-02-16T11:12:44.642Z,27.4
2019-02-16T11:22:43.858Z,34.4
2019-02-16T11:32:43.126Z,41.6
2019-02-16T11:42:42.343Z,33.3
2019-02-16T11:52:41.515Z,47.7
2019-02-16T12:04:03.294Z,36.4
2019-02-16T12:14:02.513Z,31.2
2019-02-16T12:24:01.731Z,30.3
2019-02-16T12:34:00.949Z,31.7
2019-02-16T12:44:00.215Z,32.1
2019-02-16T12:53:59.389Z,36.5
2019-02-16T13:03:58.749Z,39.3
2019-02-16T13:13:58.037Z,27.7
2019-02-16T13:23:57.278Z,37.9
2019-02-16T13:33:56.625Z,38.3
2019-02-16T13:43:55.869Z,39.1
2019-02-16T13:56:44.797Z,28.1
2019-02-16T14:06:43.949Z,27
2019-02-16T14:16:43.161Z,35.3
2019-02-16T14:26:42.374Z,37.4
2019-02-16T14:36:41.583Z,38.4
2019-02-16T14:46:40.808Z,39.1
2019-02-16T14:56:40.161Z,31.6
2019-02-16T15:06:39.402Z,40
2019-02-16T15:16:38.751Z,31.4
2019-02-16T15:26:39.493Z,36.8
2019-02-16T15:36:38.662Z,37.9
2019-02-16T15:46:37.874Z,38.2
2019-02-16T15:56:37.091Z,38.2
2019-02-16T16:06:36.308Z,40.1
2019-02-16T16:16:35.525Z,40.4
2019-02-16T16:26:34.742Z,40.2
2019-02-16T16:36:33.960Z,39.9
2019-02-16T16:46:33.181Z,40
2019-02-16T16:56:32.392Z,39.9
2019-02-16T17:06:31.611Z,39.8
2019-02-16T17:16:30.829Z,39.8
2019-02-16T17:26:37.431Z,39.7
2019-02-16T17:36:29.267Z,39.5
2019-02-16T17:46:28.539Z,25.8
2019-02-16T17:56:27.708Z,24.3
2019-02-16T18:06:26.922Z,36.6
2019-02-16T18:16:26.136Z,28.3
2019-02-16T18:26:25.380Z,24.3
2019-02-16T18:36:24.570Z,34.7
2019-02-16T18:46:23.780Z,29.5
2019-02-16T18:56:23.016Z,37.7
2019-02-16T19:06:22.216Z,31.1
2019-02-16T19:16:21.492Z,36.8
2019-02-16T19:26:20.634Z,29.9
2019-02-16T19:36:19.857Z,29.3
2019-02-16T19:46:19.063Z,37.2
2019-02-16T19:56:18.279Z,34.1
2019-02-16T20:06:17.527Z,30.7
2019-02-16T20:16:16.714Z,40.1
2019-02-16T20:26:16.016Z,28.4
2019-02-16T20:36:15.201Z,42.8
2019-02-16T20:46:14.382Z,36.9
2019-02-16T20:56:13.590Z,29.7
2019-02-16T21:15:08.095Z,24.6
2019-02-16T21:25:07.360Z,37.9
2019-02-16T21:35:06.522Z,38.1
2019-02-16T21:45:05.788Z,37.7
2019-02-16T21:55:04.949Z,42.6
2019-02-16T22:05:04.171Z,32.1
2019-02-16T22:15:03.486Z,28
2019-02-16T22:25:02.753Z,36.5
2019-02-16T22:35:02.038Z,37.5
2019-02-16T22:45:01.379Z,37.1
2019-02-16T22:55:00.615Z,37.4
2019-02-16T23:04:59.862Z,37.8
2019-02-16T23:14:59.072Z,38.9
2019-02-16T23:24:58.281Z,39.7
2019-02-16T23:34:57.494Z,32.8
2019-02-16T23:44:56.696Z,30.1
2019-02-16T23:54:55.905Z,30.9
